sensor_id;sensor_type;location;lat;lon;timestamp;P1;durP1;ratioP1;P2;durP2;ratioP2
4957;SDS011;2494;51.872;9.688;2022-10-31T00:00:35;9.10;;;8.13;;
4957;SDS011;2494;51.872;9.688;2022-10-31T00:03:21;10.37;;;8.87;;
4957;SDS011;2494;51.872;9.688;2022-10-31T00:06:08;13.50;;;8.40;;
4957;SDS011;2494;51.872;9.688;2022-10-31T00:08:53;15.33;;;9.40;;
4957;SDS011;2494;51.872;9.688;2022-10-31T00:11:39;10.50;;;9.17;;
4957;SDS011;2494;51.872;9.688;2022-10-31T00:14:24;10.33;;;9.33;;
4957;SDS011;2494;51.872;9.688;2022-10-31T00:17:10;16.30;;;10.07;;
4957;SDS011;2494;51.872;9.688;2022-10-31T00:19:55;10.30;;;9.40;;
4957;SDS011;2494;51.872;9.688;2022-10-31T00:22:42;12.50;;;9.53;;
4957;SDS011;2494;51.872;9.688;2022-10-31T00:25:28;11.03;;;9.93;;
4957;SDS011;2494;51.872;9.688;2022-10-31T00:28:13;13.83;;;10.13;;
4957;SDS011;2494;51.872;9.688;2022-10-31T00:30:59;15.53;;;9.60;;
4957;SDS011;2494;51.872;9.688;2022-10-31T00:33:44;11.93;;;10.63;;
4957;SDS011;2494;51.872;9.688;2022-10-31T00:36:29;16.07;;;10.70;;
4957;SDS011;2494;51.872;9.688;2022-10-31T00:39:16;13.33;;;10.47;;
4957;SDS011;2494;51.872;9.688;2022-10-31T00:42:01;13.57;;;12.17;;
4957;SDS011;2494;51.872;9.688;2022-10-31T00:44:46;18.30;;;10.90;;
4957;SDS011;2494;51.872;9.688;2022-10-31T00:47:32;12.00;;;9.60;;
4957;SDS011;2494;51.872;9.688;2022-10-31T00:50:17;10.27;;;9.10;;
4957;SDS011;2494;51.872;9.688;2022-10-31T00:53:02;11.30;;;8.57;;
4957;SDS011;2494;51.872;9.688;2022-10-31T00:55:49;12.43;;;9.90;;
4957;SDS011;2494;51.872;9.688;2022-10-31T00:58:34;10.30;;;9.07;;
4957;SDS011;2494;51.872;9.688;2022-10-31T01:01:20;12.93;;;10.03;;
4957;SDS011;2494;51.872;9.688;2022-10-31T01:04:05;12.50;;;10.30;;
4957;SDS011;2494;51.872;9.688;2022-10-31T01:06:50;16.87;;;9.67;;
4957;SDS011;2494;51.872;9.688;2022-10-31T01:09:35;14.73;;;10.23;;
4957;SDS011;2494;51.872;9.688;2022-10-31T01:12:22;13.90;;;10.50;;
4957;SDS011;2494;51.872;9.688;2022-10-31T01:15:08;16.27;;;10.80;;
4957;SDS011;2494;51.872;9.688;2022-10-31T01:17:53;11.83;;;9.50;;
4957;SDS011;2494;51.872;9.688;2022-10-31T01:20:39;15.93;;;10.00;;
4957;SDS011;2494;51.872;9.688;2022-10-31T01:23:24;12.47;;;11.10;;
4957;SDS011;2494;51.872;9.688;2022-10-31T01:26:10;21.70;;;10.80;;
4957;SDS011;2494;51.872;9.688;2022-10-31T01:28:57;12.20;;;10.27;;
4957;SDS011;2494;51.872;9.688;2022-10-31T01:31:43;11.67;;;10.43;;
4957;SDS011;2494;51.872;9.688;2022-10-31T01:34:28;15.13;;;9.60;;
4957;SDS011;2494;51.872;9.688;2022-10-31T01:37:14;13.00;;;11.10;;
4957;SDS011;2494;51.872;9.688;2022-10-31T01:39:59;11.17;;;10.03;;
4957;SDS011;2494;51.872;9.688;2022-10-31T01:42:44;11.03;;;9.20;;
4957;SDS011;2494;51.872;9.688;2022-10-31T01:45:32;14.53;;;10.10;;
4957;SDS011;2494;51.872;9.688;2022-10-31T01:48:18;13.53;;;9.40;;
4957;SDS011;2494;51.872;9.688;2022-10-31T01:51:04;11.17;;;9.67;;
4957;SDS011;2494;51.872;9.688;2022-10-31T01:53:51;14.80;;;9.93;;
4957;SDS011;2494;51.872;9.688;2022-10-31T01:56:39;16.23;;;9.47;;
4957;SDS011;2494;51.872;9.688;2022-10-31T01:59:26;12.10;;;10.03;;
4957;SDS011;2494;51.872;9.688;2022-10-31T02:02:14;11.90;;;9.77;;
4957;SDS011;2494;51.872;9.688;2022-10-31T02:05:00;13.27;;;10.03;;
4957;SDS011;2494;51.872;9.688;2022-10-31T02:07:48;13.40;;;9.77;;
4957;SDS011;2494;51.872;9.688;2022-10-31T02:10:36;13.03;;;9.53;;
4957;SDS011;2494;51.872;9.688;2022-10-31T02:13:21;15.07;;;12.23;;
4957;SDS011;2494;51.872;9.688;2022-10-31T02:16:08;13.00;;;11.00;;
4957;SDS011;2494;51.872;9.688;2022-10-31T02:18:55;12.40;;;11.00;;
4957;SDS011;2494;51.872;9.688;2022-10-31T02:21:41;13.77;;;9.53;;
4957;SDS011;2494;51.872;9.688;2022-10-31T02:24:46;12.53;;;10.90;;
4957;SDS011;2494;51.872;9.688;2022-10-31T02:27:41;19.67;;;11.53;;
4957;SDS011;2494;51.872;9.688;2022-10-31T02:30:33;14.73;;;11.70;;
4957;SDS011;2494;51.872;9.688;2022-10-31T02:33:24;15.17;;;11.80;;
4957;SDS011;2494;51.872;9.688;2022-10-31T02:36:10;15.83;;;11.53;;
4957;SDS011;2494;51.872;9.688;2022-10-31T02:38:59;23.17;;;12.50;;
4957;SDS011;2494;51.872;9.688;2022-10-31T02:41:48;12.93;;;10.90;;
4957;SDS011;2494;51.872;9.688;2022-10-31T02:44:37;15.67;;;11.50;;
4957;SDS011;2494;51.872;9.688;2022-10-31T02:47:23;17.97;;;11.40;;
4957;SDS011;2494;51.872;9.688;2022-10-31T02:50:13;12.00;;;10.13;;
4957;SDS011;2494;51.872;9.688;2022-10-31T02:52:58;14.20;;;9.57;;
4957;SDS011;2494;51.872;9.688;2022-10-31T02:55:56;10.20;;;8.83;;
4957;SDS011;2494;51.872;9.688;2022-10-31T02:58:42;12.27;;;10.97;;
4957;SDS011;2494;51.872;9.688;2022-10-31T03:01:33;15.77;;;11.80;;
4957;SDS011;2494;51.872;9.688;2022-10-31T03:04:29;13.90;;;11.13;;
4957;SDS011;2494;51.872;9.688;2022-10-31T03:07:20;14.13;;;12.03;;
4957;SDS011;2494;51.872;9.688;2022-10-31T03:10:07;16.57;;;12.67;;
4957;SDS011;2494;51.872;9.688;2022-10-31T03:12:59;25.67;;;13.60;;
4957;SDS011;2494;51.872;9.688;2022-10-31T03:15:47;23.37;;;14.90;;
4957;SDS011;2494;51.872;9.688;2022-10-31T03:18:34;19.43;;;14.83;;
4957;SDS011;2494;51.872;9.688;2022-10-31T03:21:22;18.50;;;14.27;;
4957;SDS011;2494;51.872;9.688;2022-10-31T03:24:11;18.57;;;14.13;;
4957;SDS011;2494;51.872;9.688;2022-10-31T03:26:57;22.20;;;12.63;;
4957;SDS011;2494;51.872;9.688;2022-10-31T03:29:43;21.10;;;14.07;;
4957;SDS011;2494;51.872;9.688;2022-10-31T03:32:29;19.10;;;13.80;;
4957;SDS011;2494;51.872;9.688;2022-10-31T03:35:17;17.37;;;13.23;;
4957;SDS011;2494;51.872;9.688;2022-10-31T03:38:03;16.77;;;12.63;;
4957;SDS011;2494;51.872;9.688;2022-10-31T03:40:51;16.90;;;12.40;;
4957;SDS011;2494;51.872;9.688;2022-10-31T03:43:37;13.47;;;11.70;;
4957;SDS011;2494;51.872;9.688;2022-10-31T03:46:24;19.27;;;13.40;;
4957;SDS011;2494;51.872;9.688;2022-10-31T03:49:08;21.40;;;14.40;;
4957;SDS011;2494;51.872;9.688;2022-10-31T03:51:54;19.80;;;13.07;;
4957;SDS011;2494;51.872;9.688;2022-10-31T03:54:41;16.97;;;12.07;;
4957;SDS011;2494;51.872;9.688;2022-10-31T03:57:29;17.97;;;12.47;;
4957;SDS011;2494;51.872;9.688;2022-10-31T04:00:18;14.80;;;12.00;;
4957;SDS011;2494;51.872;9.688;2022-10-31T04:03:04;13.53;;;11.70;;
4957;SDS011;2494;51.872;9.688;2022-10-31T04:05:52;22.07;;;12.87;;
4957;SDS011;2494;51.872;9.688;2022-10-31T04:08:40;17.80;;;13.10;;
4957;SDS011;2494;51.872;9.688;2022-10-31T04:11:28;18.50;;;14.40;;
4957;SDS011;2494;51.872;9.688;2022-10-31T04:14:15;17.73;;;12.73;;
4957;SDS011;2494;51.872;9.688;2022-10-31T04:17:01;20.03;;;12.83;;
4957;SDS011;2494;51.872;9.688;2022-10-31T04:19:46;16.50;;;12.50;;
4957;SDS011;2494;51.872;9.688;2022-10-31T04:22:31;20.43;;;13.50;;
4957;SDS011;2494;51.872;9.688;2022-10-31T04:25:17;17.50;;;13.33;;
4957;SDS011;2494;51.872;9.688;2022-10-31T04:28:02;20.67;;;14.07;;
4957;SDS011;2494;51.872;9.688;2022-10-31T04:30:49;19.30;;;14.70;;
4957;SDS011;2494;51.872;9.688;2022-10-31T04:33:34;25.57;;;15.90;;
4957;SDS011;2494;51.872;9.688;2022-10-31T04:36:19;26.27;;;17.17;;
4957;SDS011;2494;51.872;9.688;2022-10-31T04:39:05;31.83;;;19.47;;
4957;SDS011;2494;51.872;9.688;2022-10-31T04:41:50;18.50;;;15.40;;
4957;SDS011;2494;51.872;9.688;2022-10-31T04:44:35;23.40;;;16.23;;
4957;SDS011;2494;51.872;9.688;2022-10-31T04:47:22;27.73;;;16.53;;
4957;SDS011;2494;51.872;9.688;2022-10-31T04:50:08;21.10;;;14.33;;
4957;SDS011;2494;51.872;9.688;2022-10-31T04:52:53;22.83;;;15.40;;
4957;SDS011;2494;51.872;9.688;2022-10-31T04:55:38;22.77;;;15.60;;
4957;SDS011;2494;51.872;9.688;2022-10-31T04:58:23;25.60;;;15.97;;
4957;SDS011;2494;51.872;9.688;2022-10-31T05:01:09;21.07;;;15.80;;
4957;SDS011;2494;51.872;9.688;2022-10-31T05:03:56;32.37;;;16.60;;
4957;SDS011;2494;51.872;9.688;2022-10-31T05:06:41;21.80;;;15.10;;
4957;SDS011;2494;51.872;9.688;2022-10-31T05:09:27;18.90;;;12.90;;
4957;SDS011;2494;51.872;9.688;2022-10-31T05:12:12;19.57;;;14.50;;
4957;SDS011;2494;51.872;9.688;2022-10-31T05:14:58;19.17;;;14.00;;
4957;SDS011;2494;51.872;9.688;2022-10-31T05:17:43;20.13;;;14.03;;
4957;SDS011;2494;51.872;9.688;2022-10-31T05:20:30;27.00;;;17.87;;
4957;SDS011;2494;51.872;9.688;2022-10-31T05:23:15;30.27;;;17.70;;
4957;SDS011;2494;51.872;9.688;2022-10-31T05:26:00;27.53;;;16.73;;
4957;SDS011;2494;51.872;9.688;2022-10-31T05:28:45;30.70;;;18.17;;
4957;SDS011;2494;51.872;9.688;2022-10-31T05:31:31;30.67;;;19.40;;
4957;SDS011;2494;51.872;9.688;2022-10-31T05:34:16;29.00;;;18.07;;
4957;SDS011;2494;51.872;9.688;2022-10-31T05:37:03;26.73;;;15.73;;
4957;SDS011;2494;51.872;9.688;2022-10-31T05:39:48;21.73;;;16.27;;
4957;SDS011;2494;51.872;9.688;2022-10-31T05:42:34;27.07;;;16.77;;
4957;SDS011;2494;51.872;9.688;2022-10-31T05:45:19;27.00;;;16.07;;
4957;SDS011;2494;51.872;9.688;2022-10-31T05:48:05;32.20;;;17.93;;
4957;SDS011;2494;51.872;9.688;2022-10-31T05:50:50;33.73;;;18.77;;
4957;SDS011;2494;51.872;9.688;2022-10-31T05:53:37;31.90;;;19.60;;
4957;SDS011;2494;51.872;9.688;2022-10-31T05:56:22;29.87;;;19.00;;
4957;SDS011;2494;51.872;9.688;2022-10-31T05:59:07;37.13;;;21.53;;
4957;SDS011;2494;51.872;9.688;2022-10-31T06:01:53;37.73;;;25.13;;
4957;SDS011;2494;51.872;9.688;2022-10-31T06:04:38;35.53;;;23.27;;
4957;SDS011;2494;51.872;9.688;2022-10-31T06:07:23;41.03;;;24.30;;
4957;SDS011;2494;51.872;9.688;2022-10-31T06:10:11;35.43;;;24.10;;
4957;SDS011;2494;51.872;9.688;2022-10-31T06:12:56;41.50;;;24.03;;
4957;SDS011;2494;51.872;9.688;2022-10-31T06:15:41;47.67;;;23.07;;
4957;SDS011;2494;51.872;9.688;2022-10-31T06:18:27;39.77;;;22.97;;
4957;SDS011;2494;51.872;9.688;2022-10-31T06:21:12;37.67;;;24.30;;
4957;SDS011;2494;51.872;9.688;2022-10-31T06:23:57;42.97;;;23.73;;
4957;SDS011;2494;51.872;9.688;2022-10-31T06:26:44;47.73;;;23.77;;
4957;SDS011;2494;51.872;9.688;2022-10-31T06:29:29;39.30;;;23.87;;
4957;SDS011;2494;51.872;9.688;2022-10-31T06:32:14;48.00;;;26.07;;
4957;SDS011;2494;51.872;9.688;2022-10-31T06:34:59;37.10;;;22.73;;
4957;SDS011;2494;51.872;9.688;2022-10-31T06:37:50;40.73;;;24.73;;
4957;SDS011;2494;51.872;9.688;2022-10-31T06:40:35;52.90;;;25.47;;
4957;SDS011;2494;51.872;9.688;2022-10-31T06:43:22;43.70;;;24.97;;
4957;SDS011;2494;51.872;9.688;2022-10-31T06:46:07;35.93;;;23.80;;
4957;SDS011;2494;51.872;9.688;2022-10-31T06:48:53;41.73;;;24.60;;
4957;SDS011;2494;51.872;9.688;2022-10-31T06:51:38;36.13;;;22.77;;
4957;SDS011;2494;51.872;9.688;2022-10-31T06:54:23;39.67;;;22.50;;
4957;SDS011;2494;51.872;9.688;2022-10-31T06:57:08;37.47;;;24.07;;
4957;SDS011;2494;51.872;9.688;2022-10-31T06:59:55;42.20;;;23.43;;
4957;SDS011;2494;51.872;9.688;2022-10-31T07:02:40;37.57;;;23.03;;
4957;SDS011;2494;51.872;9.688;2022-10-31T07:05:25;31.03;;;20.90;;
4957;SDS011;2494;51.872;9.688;2022-10-31T07:08:11;34.10;;;21.23;;
4957;SDS011;2494;51.872;9.688;2022-10-31T07:10:57;33.10;;;21.57;;
4957;SDS011;2494;51.872;9.688;2022-10-31T07:13:42;28.97;;;19.40;;
4957;SDS011;2494;51.872;9.688;2022-10-31T07:16:29;24.50;;;19.40;;
4957;SDS011;2494;51.872;9.688;2022-10-31T07:19:14;31.10;;;20.00;;
4957;SDS011;2494;51.872;9.688;2022-10-31T07:21:59;27.47;;;20.60;;
4957;SDS011;2494;51.872;9.688;2022-10-31T07:24:44;26.73;;;19.80;;
4957;SDS011;2494;51.872;9.688;2022-10-31T07:27:34;26.37;;;17.60;;
4957;SDS011;2494;51.872;9.688;2022-10-31T07:30:20;27.90;;;18.80;;
4957;SDS011;2494;51.872;9.688;2022-10-31T07:33:08;24.20;;;18.47;;
4957;SDS011;2494;51.872;9.688;2022-10-31T07:35:53;13.67;;;10.90;;
4957;SDS011;2494;51.872;9.688;2022-10-31T07:38:39;12.17;;;10.03;;
4957;SDS011;2494;51.872;9.688;2022-10-31T07:41:24;15.20;;;12.37;;
4957;SDS011;2494;51.872;9.688;2022-10-31T07:44:09;15.93;;;12.10;;
4957;SDS011;2494;51.872;9.688;2022-10-31T07:46:55;19.37;;;13.93;;
4957;SDS011;2494;51.872;9.688;2022-10-31T07:49:41;22.30;;;14.87;;
4957;SDS011;2494;51.872;9.688;2022-10-31T07:52:27;24.90;;;17.50;;
4957;SDS011;2494;51.872;9.688;2022-10-31T07:55:12;26.17;;;16.83;;
4957;SDS011;2494;51.872;9.688;2022-10-31T07:57:58;26.43;;;16.27;;
4957;SDS011;2494;51.872;9.688;2022-10-31T08:00:44;23.90;;;17.20;;
4957;SDS011;2494;51.872;9.688;2022-10-31T08:03:30;17.60;;;14.20;;
4957;SDS011;2494;51.872;9.688;2022-10-31T08:06:16;15.07;;;13.17;;
4957;SDS011;2494;51.872;9.688;2022-10-31T08:09:01;16.60;;;13.43;;
4957;SDS011;2494;51.872;9.688;2022-10-31T08:11:47;19.43;;;14.50;;
4957;SDS011;2494;51.872;9.688;2022-10-31T08:14:32;22.67;;;15.57;;
4957;SDS011;2494;51.872;9.688;2022-10-31T08:17:17;22.13;;;15.33;;
4957;SDS011;2494;51.872;9.688;2022-10-31T08:20:03;20.40;;;15.23;;
4957;SDS011;2494;51.872;9.688;2022-10-31T08:25:49;21.40;;;15.90;;
4957;SDS011;2494;51.872;9.688;2022-10-31T08:28:35;21.97;;;15.83;;
4957;SDS011;2494;51.872;9.688;2022-10-31T08:31:20;22.90;;;17.10;;
4957;SDS011;2494;51.872;9.688;2022-10-31T08:34:06;22.27;;;16.20;;
4957;SDS011;2494;51.872;9.688;2022-10-31T08:36:52;26.60;;;17.40;;
4957;SDS011;2494;51.872;9.688;2022-10-31T08:39:37;20.23;;;17.50;;
4957;SDS011;2494;51.872;9.688;2022-10-31T08:42:24;24.07;;;16.90;;
4957;SDS011;2494;51.872;9.688;2022-10-31T08:45:09;25.00;;;16.43;;
4957;SDS011;2494;51.872;9.688;2022-10-31T08:47:57;25.20;;;16.90;;
4957;SDS011;2494;51.872;9.688;2022-10-31T08:50:44;21.33;;;15.67;;
4957;SDS011;2494;51.872;9.688;2022-10-31T08:53:29;20.97;;;15.10;;
4957;SDS011;2494;51.872;9.688;2022-10-31T08:56:14;24.37;;;16.27;;
4957;SDS011;2494;51.872;9.688;2022-10-31T08:59:01;26.80;;;15.30;;
4957;SDS011;2494;51.872;9.688;2022-10-31T09:01:46;25.10;;;17.67;;
4957;SDS011;2494;51.872;9.688;2022-10-31T09:04:31;23.83;;;17.90;;
4957;SDS011;2494;51.872;9.688;2022-10-31T09:07:16;23.43;;;15.90;;
4957;SDS011;2494;51.872;9.688;2022-10-31T09:10:02;25.53;;;17.80;;
4957;SDS011;2494;51.872;9.688;2022-10-31T09:12:47;28.47;;;20.57;;
4957;SDS011;2494;51.872;9.688;2022-10-31T09:15:34;23.13;;;17.30;;
4957;SDS011;2494;51.872;9.688;2022-10-31T09:18:20;25.63;;;18.10;;
4957;SDS011;2494;51.872;9.688;2022-10-31T09:21:05;25.40;;;17.03;;
4957;SDS011;2494;51.872;9.688;2022-10-31T09:23:50;21.80;;;15.93;;
4957;SDS011;2494;51.872;9.688;2022-10-31T09:26:38;25.23;;;17.70;;
4957;SDS011;2494;51.872;9.688;2022-10-31T09:29:23;21.43;;;17.00;;
4957;SDS011;2494;51.872;9.688;2022-10-31T09:32:10;25.90;;;19.70;;
4957;SDS011;2494;51.872;9.688;2022-10-31T09:34:55;26.43;;;18.00;;
4957;SDS011;2494;51.872;9.688;2022-10-31T09:37:41;25.30;;;18.90;;
4957;SDS011;2494;51.872;9.688;2022-10-31T09:40:28;23.47;;;18.27;;
4957;SDS011;2494;51.872;9.688;2022-10-31T09:43:15;26.93;;;18.57;;
4957;SDS011;2494;51.872;9.688;2022-10-31T09:46:04;25.87;;;17.40;;
4957;SDS011;2494;51.872;9.688;2022-10-31T09:48:59;27.83;;;18.33;;
4957;SDS011;2494;51.872;9.688;2022-10-31T09:51:50;25.63;;;17.60;;
4957;SDS011;2494;51.872;9.688;2022-10-31T09:54:38;27.60;;;18.60;;
4957;SDS011;2494;51.872;9.688;2022-10-31T09:57:27;32.87;;;20.13;;
4957;SDS011;2494;51.872;9.688;2022-10-31T10:00:15;24.70;;;17.83;;
4957;SDS011;2494;51.872;9.688;2022-10-31T10:03:03;28.70;;;19.03;;
4957;SDS011;2494;51.872;9.688;2022-10-31T10:05:53;28.20;;;18.40;;
4957;SDS011;2494;51.872;9.688;2022-10-31T10:08:39;27.43;;;18.10;;
4957;SDS011;2494;51.872;9.688;2022-10-31T10:11:31;29.47;;;18.03;;
4957;SDS011;2494;51.872;9.688;2022-10-31T10:14:21;25.70;;;18.50;;
4957;SDS011;2494;51.872;9.688;2022-10-31T10:17:11;27.43;;;18.40;;
4957;SDS011;2494;51.872;9.688;2022-10-31T10:20:13;30.67;;;19.53;;
4957;SDS011;2494;51.872;9.688;2022-10-31T10:23:09;24.23;;;16.70;;
4957;SDS011;2494;51.872;9.688;2022-10-31T10:26:00;27.90;;;17.83;;
4957;SDS011;2494;51.872;9.688;2022-10-31T10:28:47;22.27;;;17.00;;
4957;SDS011;2494;51.872;9.688;2022-10-31T10:31:35;24.03;;;17.30;;
4957;SDS011;2494;51.872;9.688;2022-10-31T10:34:22;20.37;;;17.10;;
4957;SDS011;2494;51.872;9.688;2022-10-31T10:37:13;24.07;;;17.10;;
4957;SDS011;2494;51.872;9.688;2022-10-31T10:40:05;20.27;;;16.13;;
4957;SDS011;2494;51.872;9.688;2022-10-31T10:42:54;28.07;;;17.30;;
4957;SDS011;2494;51.872;9.688;2022-10-31T10:46:00;23.30;;;15.23;;
4957;SDS011;2494;51.872;9.688;2022-10-31T10:49:13;18.30;;;13.17;;
4957;SDS011;2494;51.872;9.688;2022-10-31T10:52:00;16.70;;;13.43;;
4957;SDS011;2494;51.872;9.688;2022-10-31T10:54:54;19.87;;;15.63;;
4957;SDS011;2494;51.872;9.688;2022-10-31T10:57:46;23.03;;;15.13;;
4957;SDS011;2494;51.872;9.688;2022-10-31T11:00:39;18.00;;;14.50;;
4957;SDS011;2494;51.872;9.688;2022-10-31T11:03:25;18.23;;;14.73;;
4957;SDS011;2494;51.872;9.688;2022-10-31T11:06:19;18.73;;;14.10;;
4957;SDS011;2494;51.872;9.688;2022-10-31T11:09:09;18.33;;;15.10;;
4957;SDS011;2494;51.872;9.688;2022-10-31T11:11:55;20.47;;;15.30;;
4957;SDS011;2494;51.872;9.688;2022-10-31T11:14:45;22.40;;;14.53;;
4957;SDS011;2494;51.872;9.688;2022-10-31T11:17:31;22.07;;;17.83;;
4957;SDS011;2494;51.872;9.688;2022-10-31T11:20:23;18.20;;;14.53;;
4957;SDS011;2494;51.872;9.688;2022-10-31T11:23:16;19.43;;;14.57;;
4957;SDS011;2494;51.872;9.688;2022-10-31T11:26:03;20.30;;;14.20;;
4957;SDS011;2494;51.872;9.688;2022-10-31T11:28:56;23.17;;;16.00;;
4957;SDS011;2494;51.872;9.688;2022-10-31T11:31:42;18.20;;;14.70;;
4957;SDS011;2494;51.872;9.688;2022-10-31T11:34:29;20.93;;;14.63;;
4957;SDS011;2494;51.872;9.688;2022-10-31T11:37:15;27.33;;;16.73;;
4957;SDS011;2494;51.872;9.688;2022-10-31T11:40:02;25.93;;;16.20;;
4957;SDS011;2494;51.872;9.688;2022-10-31T11:42:48;26.53;;;16.17;;
4957;SDS011;2494;51.872;9.688;2022-10-31T11:45:34;24.03;;;17.10;;
4957;SDS011;2494;51.872;9.688;2022-10-31T11:48:22;25.17;;;16.73;;
4957;SDS011;2494;51.872;9.688;2022-10-31T11:51:08;23.03;;;17.30;;
4957;SDS011;2494;51.872;9.688;2022-10-31T11:53:54;22.17;;;17.53;;
4957;SDS011;2494;51.872;9.688;2022-10-31T11:56:41;24.80;;;17.40;;
4957;SDS011;2494;51.872;9.688;2022-10-31T11:59:27;27.57;;;19.43;;
4957;SDS011;2494;51.872;9.688;2022-10-31T12:02:14;27.47;;;17.57;;
4957;SDS011;2494;51.872;9.688;2022-10-31T12:05:04;26.00;;;17.70;;
4957;SDS011;2494;51.872;9.688;2022-10-31T12:07:51;22.93;;;16.90;;
4957;SDS011;2494;51.872;9.688;2022-10-31T12:10:40;24.80;;;17.83;;
4957;SDS011;2494;51.872;9.688;2022-10-31T12:13:32;23.47;;;18.07;;
4957;SDS011;2494;51.872;9.688;2022-10-31T12:16:18;27.67;;;17.80;;
4957;SDS011;2494;51.872;9.688;2022-10-31T12:19:04;25.47;;;17.77;;
4957;SDS011;2494;51.872;9.688;2022-10-31T12:21:55;26.43;;;17.83;;
4957;SDS011;2494;51.872;9.688;2022-10-31T12:24:52;18.97;;;15.40;;
4957;SDS011;2494;51.872;9.688;2022-10-31T12:27:51;22.50;;;17.40;;
4957;SDS011;2494;51.872;9.688;2022-10-31T12:30:43;30.03;;;17.00;;
4957;SDS011;2494;51.872;9.688;2022-10-31T12:33:36;23.27;;;16.37;;
4957;SDS011;2494;51.872;9.688;2022-10-31T12:36:29;22.80;;;17.60;;
4957;SDS011;2494;51.872;9.688;2022-10-31T12:39:35;21.97;;;16.50;;
4957;SDS011;2494;51.872;9.688;2022-10-31T12:42:28;20.80;;;16.03;;
4957;SDS011;2494;51.872;9.688;2022-10-31T12:45:23;21.80;;;16.03;;
4957;SDS011;2494;51.872;9.688;2022-10-31T12:51:17;20.83;;;14.60;;
4957;SDS011;2494;51.872;9.688;2022-10-31T12:54:12;23.10;;;14.07;;
4957;SDS011;2494;51.872;9.688;2022-10-31T12:57:03;23.10;;;15.10;;
4957;SDS011;2494;51.872;9.688;2022-10-31T12:59:53;21.83;;;15.67;;
4957;SDS011;2494;51.872;9.688;2022-10-31T13:02:44;21.97;;;15.10;;
4957;SDS011;2494;51.872;9.688;2022-10-31T13:05:31;23.07;;;14.90;;
4957;SDS011;2494;51.872;9.688;2022-10-31T13:08:20;22.43;;;15.53;;
4957;SDS011;2494;51.872;9.688;2022-10-31T13:11:08;25.23;;;15.87;;
4957;SDS011;2494;51.872;9.688;2022-10-31T13:13:57;19.23;;;16.37;;
4957;SDS011;2494;51.872;9.688;2022-10-31T13:16:44;21.07;;;14.60;;
4957;SDS011;2494;51.872;9.688;2022-10-31T13:19:31;17.70;;;14.37;;
4957;SDS011;2494;51.872;9.688;2022-10-31T13:22:20;20.07;;;15.20;;
4957;SDS011;2494;51.872;9.688;2022-10-31T13:25:09;25.23;;;15.77;;
4957;SDS011;2494;51.872;9.688;2022-10-31T13:27:57;22.07;;;14.77;;
4957;SDS011;2494;51.872;9.688;2022-10-31T13:30:45;20.53;;;15.60;;
4957;SDS011;2494;51.872;9.688;2022-10-31T13:33:31;25.17;;;15.90;;
4957;SDS011;2494;51.872;9.688;2022-10-31T13:36:21;20.63;;;14.20;;
4957;SDS011;2494;51.872;9.688;2022-10-31T13:39:13;18.20;;;15.47;;
4957;SDS011;2494;51.872;9.688;2022-10-31T13:42:01;21.80;;;14.60;;
4957;SDS011;2494;51.872;9.688;2022-10-31T13:44:48;23.53;;;14.70;;
4957;SDS011;2494;51.872;9.688;2022-10-31T13:47:35;22.57;;;14.23;;
4957;SDS011;2494;51.872;9.688;2022-10-31T13:50:21;17.70;;;14.03;;
4957;SDS011;2494;51.872;9.688;2022-10-31T13:53:14;15.87;;;13.33;;
4957;SDS011;2494;51.872;9.688;2022-10-31T13:56:04;16.83;;;13.60;;
4957;SDS011;2494;51.872;9.688;2022-10-31T14:01:57;16.90;;;14.03;;
4957;SDS011;2494;51.872;9.688;2022-10-31T14:04:46;18.50;;;12.87;;
4957;SDS011;2494;51.872;9.688;2022-10-31T14:07:32;20.03;;;12.80;;
4957;SDS011;2494;51.872;9.688;2022-10-31T14:10:20;21.57;;;14.23;;
4957;SDS011;2494;51.872;9.688;2022-10-31T14:13:07;17.43;;;13.03;;
4957;SDS011;2494;51.872;9.688;2022-10-31T14:15:54;16.40;;;12.87;;
4957;SDS011;2494;51.872;9.688;2022-10-31T14:18:41;19.07;;;15.03;;
4957;SDS011;2494;51.872;9.688;2022-10-31T14:21:31;25.53;;;15.10;;
4957;SDS011;2494;51.872;9.688;2022-10-31T14:24:30;14.47;;;12.97;;
4957;SDS011;2494;51.872;9.688;2022-10-31T14:27:42;27.80;;;13.43;;
4957;SDS011;2494;51.872;9.688;2022-10-31T14:30:29;18.80;;;13.80;;
4957;SDS011;2494;51.872;9.688;2022-10-31T14:33:15;23.47;;;14.80;;
4957;SDS011;2494;51.872;9.688;2022-10-31T14:36:02;22.97;;;15.27;;
4957;SDS011;2494;51.872;9.688;2022-10-31T14:38:52;19.57;;;14.20;;
4957;SDS011;2494;51.872;9.688;2022-10-31T14:41:43;20.67;;;13.60;;
4957;SDS011;2494;51.872;9.688;2022-10-31T14:47:42;24.10;;;14.33;;
4957;SDS011;2494;51.872;9.688;2022-10-31T14:50:36;20.47;;;14.63;;
4957;SDS011;2494;51.872;9.688;2022-10-31T14:53:23;20.03;;;15.17;;
4957;SDS011;2494;51.872;9.688;2022-10-31T14:56:11;22.60;;;15.27;;
4957;SDS011;2494;51.872;9.688;2022-10-31T14:58:57;25.40;;;14.97;;
4957;SDS011;2494;51.872;9.688;2022-10-31T15:01:48;21.77;;;15.27;;
4957;SDS011;2494;51.872;9.688;2022-10-31T15:04:35;24.83;;;16.20;;
4957;SDS011;2494;51.872;9.688;2022-10-31T15:07:21;24.97;;;16.47;;
4957;SDS011;2494;51.872;9.688;2022-10-31T15:10:19;16.90;;;13.83;;
4957;SDS011;2494;51.872;9.688;2022-10-31T15:13:09;22.60;;;17.30;;
4957;SDS011;2494;51.872;9.688;2022-10-31T15:15:55;24.57;;;16.07;;
4957;SDS011;2494;51.872;9.688;2022-10-31T15:18:44;27.17;;;16.43;;
4957;SDS011;2494;51.872;9.688;2022-10-31T15:21:30;25.73;;;15.07;;
4957;SDS011;2494;51.872;9.688;2022-10-31T15:24:16;18.70;;;13.77;;
4957;SDS011;2494;51.872;9.688;2022-10-31T15:27:02;22.00;;;14.80;;
4957;SDS011;2494;51.872;9.688;2022-10-31T15:29:49;20.50;;;14.87;;
4957;SDS011;2494;51.872;9.688;2022-10-31T15:32:35;19.70;;;14.90;;
4957;SDS011;2494;51.872;9.688;2022-10-31T15:35:21;19.83;;;14.77;;
4957;SDS011;2494;51.872;9.688;2022-10-31T15:38:08;25.13;;;13.80;;
4957;SDS011;2494;51.872;9.688;2022-10-31T15:40:56;21.63;;;14.20;;
4957;SDS011;2494;51.872;9.688;2022-10-31T15:43:41;26.00;;;16.00;;
4957;SDS011;2494;51.872;9.688;2022-10-31T15:46:31;34.97;;;15.30;;
4957;SDS011;2494;51.872;9.688;2022-10-31T15:49:25;21.23;;;14.80;;
4957;SDS011;2494;51.872;9.688;2022-10-31T15:52:17;21.80;;;14.53;;
4957;SDS011;2494;51.872;9.688;2022-10-31T15:55:04;20.33;;;14.40;;
4957;SDS011;2494;51.872;9.688;2022-10-31T15:57:50;21.07;;;13.40;;
4957;SDS011;2494;51.872;9.688;2022-10-31T16:00:36;20.30;;;14.60;;
4957;SDS011;2494;51.872;9.688;2022-10-31T16:03:25;18.80;;;13.57;;
4957;SDS011;2494;51.872;9.688;2022-10-31T16:06:18;20.40;;;13.37;;
4957;SDS011;2494;51.872;9.688;2022-10-31T16:09:04;18.73;;;14.43;;
4957;SDS011;2494;51.872;9.688;2022-10-31T16:12:03;24.77;;;14.80;;
4957;SDS011;2494;51.872;9.688;2022-10-31T16:14:48;24.30;;;14.17;;
4957;SDS011;2494;51.872;9.688;2022-10-31T16:17:34;24.50;;;15.53;;
4957;SDS011;2494;51.872;9.688;2022-10-31T16:20:22;20.40;;;16.03;;
4957;SDS011;2494;51.872;9.688;2022-10-31T16:23:11;25.50;;;15.10;;
4957;SDS011;2494;51.872;9.688;2022-10-31T16:25:58;23.67;;;15.10;;
4957;SDS011;2494;51.872;9.688;2022-10-31T16:28:50;23.53;;;14.60;;
4957;SDS011;2494;51.872;9.688;2022-10-31T16:31:36;16.53;;;13.80;;
4957;SDS011;2494;51.872;9.688;2022-10-31T16:34:22;25.23;;;14.83;;
4957;SDS011;2494;51.872;9.688;2022-10-31T16:37:10;19.90;;;15.03;;
4957;SDS011;2494;51.872;9.688;2022-10-31T16:39:55;25.17;;;17.10;;
4957;SDS011;2494;51.872;9.688;2022-10-31T16:42:40;27.33;;;18.33;;
4957;SDS011;2494;51.872;9.688;2022-10-31T16:45:27;23.90;;;17.90;;
4957;SDS011;2494;51.872;9.688;2022-10-31T16:48:14;28.77;;;18.83;;
4957;SDS011;2494;51.872;9.688;2022-10-31T16:51:03;31.63;;;18.10;;
4957;SDS011;2494;51.872;9.688;2022-10-31T16:53:49;24.47;;;17.00;;
4957;SDS011;2494;51.872;9.688;2022-10-31T16:56:36;21.83;;;16.43;;
4957;SDS011;2494;51.872;9.688;2022-10-31T16:59:22;21.03;;;17.10;;
4957;SDS011;2494;51.872;9.688;2022-10-31T17:02:09;22.60;;;14.40;;